Time;durP1;ratioP1;P1;durP2;ratioP2;P2;SDS_P1;SDS_P2;PMS_P1;PMS_P2;Temp;Humidity;BMP_temperature;BMP_pressure;BME280_temperature;BME280_humidity;BME280_pressure;Samples;Min_cycle;Max_cycle;Signal;HPM_P1;HPM_P2
2022/06/05 00:01:56;;;;;;;;;;;;;;;14.44;71.12;100804.09;6252081;22;1301;-91
2022/06/05 00:04:41;;;;;;;;;;;;;;;14.58;71.23;100808.53;6252670;22;1188;-91
2022/06/05 00:07:16;;;;;;;;;;;;;;;14.56;70.49;100804.44;6252544;22;1237;-91
2022/06/05 00:09:41;;;;;;;;;;;;;;;14.81;69.39;100804.03;6252624;22;1237;-91
2022/06/05 00:12:09;;;;;;;;;;;;;;;14.94;68.73;100799.69;6252128;22;1246;-92
2022/06/05 00:14:37;;;;;;;;;;;;;;;14.63;71.11;100799.41;6251953;22;1154;-91
2022/06/05 00:17:03;;;;;;;;;;;;;;;14.28;71.23;100790.53;6252085;22;1322;-91
2022/06/05 00:19:29;;;;;;;;;;;;;;;14.38;71.43;100790.38;6252074;22;1922;-92
2022/06/05 00:21:54;;;;;;;;;;;;;;;14.17;71.78;100790.97;6252061;22;1298;-91
2022/06/05 00:24:20;;;;;;;;;;;;;;;14.09;71.43;100789.72;6252280;22;1373;-91
2022/06/05 00:26:54;;;;;;;;;;;;;;;14.28;71.61;100792.47;6252167;22;1159;-92
2022/06/05 00:29:37;;;;;;;;;;;;;;;14.36;71.23;100794.53;6252528;22;1309;-92
2022/06/05 00:32:11;;;;;;;;;;;;;;;14.33;71.22;100803.41;6252059;22;1304;-91
2022/06/05 00:34:36;;;;;;;;;;;;;;;14.19;69.65;100795.06;6251807;22;1328;-91
2022/06/05 00:37:23;;;;;;;;;;;;;;;14.21;70.26;100795.56;6251937;22;873;-92
2022/06/05 00:40:07;;;;;;;;;;;;;;;14.13;70.24;100798.16;6252023;22;1367;-91
2022/06/05 00:42:32;;;;;;;;;;;;;;;13.96;70.99;100804.19;6251649;22;1287;-91
2022/06/05 00:44:59;;;;;;;;;;;;;;;14.06;71.67;100803.22;6251732;22;1140;-92
2022/06/05 00:47:27;;;;;;;;;;;;;;;13.76;71.31;100799.78;6251703;22;1242;-91
2022/06/05 00:49:52;;;;;;;;;;;;;;;13.72;72.66;100789.63;6251531;22;1427;-91
2022/06/05 00:52:19;;;;;;;;;;;;;;;13.78;72.18;100794.78;6251568;22;1325;-92
2022/06/05 00:54:44;;;;;;;;;;;;;;;13.92;71.16;100784.72;6251565;22;1269;-92
2022/06/05 00:57:11;;;;;;;;;;;;;;;13.73;71.70;100778.34;6251992;22;1310;-91
2022/06/05 00:59:37;;;;;;;;;;;;;;;13.50;72.43;100788.25;6251866;22;1918;-92
2022/06/05 01:02:02;;;;;;;;;;;;;;;13.50;72.21;100790.19;6251468;22;1259;-92
2022/06/05 01:04:31;;;;;;;;;;;;;;;13.29;72.65;100786.03;6251923;22;1135;-91
2022/06/05 01:06:56;;;;;;;;;;;;;;;13.29;72.26;100783.28;6251567;22;1165;-91
2022/06/05 01:09:21;;;;;;;;;;;;;;;13.45;72.71;100784.72;6278797;22;988;-91
2022/06/05 01:11:52;;;;;;;;;;;;;;;13.27;72.30;100789.88;6251672;22;1264;-91
2022/06/05 01:14:28;;;;;;;;;;;;;;;13.10;72.23;100786.72;6251678;22;1581;-92
2022/06/05 01:17:03;;;;;;;;;;;;;;;12.85;73.56;100796.03;6251574;22;1171;-92
2022/06/05 01:19:41;;;;;;;;;;;;;;;13.15;73.57;100794.97;6251337;22;1894;-91
2022/06/05 01:22:06;;;;;;;;;;;;;;;13.06;71.79;100790.34;6251518;22;1375;-92
2022/06/05 01:24:50;;;;;;;;;;;;;;;13.17;72.25;100795.50;6251669;22;1310;-92
2022/06/05 01:27:19;;;;;;;;;;;;;;;13.08;73.21;100805.47;6251601;22;1248;-92
2022/06/05 01:29:49;;;;;;;;;;;;;;;13.13;73.86;100810.06;6251873;22;1360;-92
2022/06/05 01:32:23;;;;;;;;;;;;;;;13.18;73.14;100799.06;6251662;22;1440;-91
2022/06/05 01:34:53;;;;;;;;;;;;;;;12.64;75.40;100782.78;6251805;22;1174;-91
2022/06/05 01:37:25;;;;;;;;;;;;;;;12.84;74.85;100775.16;6251372;22;1240;-92
2022/06/05 01:39:57;;;;;;;;;;;;;;;12.90;74.99;100775.94;6251267;22;1277;-92
2022/06/05 01:42:25;;;;;;;;;;;;;;;12.96;74.49;100774.78;6251174;22;1267;-91
2022/06/05 01:44:55;;;;;;;;;;;;;;;13.11;74.26;100787.53;6251093;22;1148;-91
2022/06/05 01:47:22;;;;;;;;;;;;;;;13.47;72.37;100780.59;6251099;22;1151;-92
2022/06/05 01:49:54;;;;;;;;;;;;;;;13.45;73.25;100769.06;6251798;22;1246;-91
2022/06/05 01:52:39;;;;;;;;;;;;;;;13.17;72.88;100780.94;6251242;22;1273;-91
2022/06/05 01:55:05;;;;;;;;;;;;;;;13.02;73.29;100778.28;6250139;22;1201;-92
2022/06/05 01:57:30;;;;;;;;;;;;;;;12.66;74.63;100772.31;6251184;22;1927;-91
2022/06/05 02:00:06;;;;;;;;;;;;;;;12.81;75.29;100772.19;6250568;22;1242;-92
2022/06/05 02:02:34;;;;;;;;;;;;;;;12.60;75.06;100766.03;6251176;22;1305;-91
2022/06/05 02:05:05;;;;;;;;;;;;;;;12.84;75.34;100760.63;6250926;22;1226;-93
2022/06/05 02:07:52;;;;;;;;;;;;;;;12.46;75.39;100763.13;6251432;22;1152;-91
2022/06/05 02:10:21;;;;;;;;;;;;;;;12.34;75.49;100767.34;6251175;22;1311;-91
2022/06/05 02:12:47;;;;;;;;;;;;;;;12.24;76.30;100757.28;6250976;22;1249;-92
2022/06/05 02:15:12;;;;;;;;;;;;;;;12.20;77.05;100758.94;6250854;22;1188;-91
2022/06/05 02:17:38;;;;;;;;;;;;;;;12.73;74.87;100761.81;6250814;22;1876;-91
2022/06/05 02:20:04;;;;;;;;;;;;;;;12.41;74.06;100759.63;6251194;22;1301;-91
2022/06/05 02:22:34;;;;;;;;;;;;;;;12.12;75.33;100754.06;6250782;22;1204;-91
2022/06/05 02:24:59;;;;;;;;;;;;;;;12.22;76.43;100756.72;6251554;22;1242;-91
2022/06/05 02:27:25;;;;;;;;;;;;;;;12.54;74.62;100744.41;6251409;22;1262;-91
2022/06/05 02:29:50;;;;;;;;;;;;;;;12.60;74.40;100737.75;6251114;22;1253;-91
2022/06/05 02:32:36;;;;;;;;;;;;;;;12.17;74.60;100753.19;6250848;22;1257;-92
2022/06/05 02:35:20;;;;;;;;;;;;;;;12.28;75.81;100763.81;6250967;22;1262;-92
2022/06/05 02:38:03;;;;;;;;;;;;;;;12.50;74.73;100763.41;6250748;22;1965;-91
2022/06/05 02:40:46;;;;;;;;;;;;;;;12.54;73.35;100760.88;6250848;22;1250;-92
2022/06/05 02:43:15;;;;;;;;;;;;;;;12.55;74.20;100762.53;6250825;22;1257;-91
2022/06/05 02:45:52;;;;;;;;;;;;;;;12.59;74.27;100756.16;6250926;22;1203;-91
2022/06/05 02:48:25;;;;;;;;;;;;;;;12.42;75.55;100748.34;6251225;22;1238;-91
2022/06/05 02:50:54;;;;;;;;;;;;;;;12.55;74.28;100746.03;6250698;22;1259;-91
2022/06/05 02:53:20;;;;;;;;;;;;;;;12.11;75.50;100753.22;6251091;22;1493;-91
2022/06/05 02:55:45;;;;;;;;;;;;;;;12.02;76.24;100746.72;6250603;22;1147;-91
2022/06/05 02:58:11;;;;;;;;;;;;;;;12.13;76.20;100751.03;6250928;22;1885;-91
2022/06/05 03:00:38;;;;;;;;;;;;;;;12.30;75.34;100744.31;6251202;22;1315;-91
2022/06/05 03:05:48;;;;;;;;;;;;;;;12.32;75.24;100740.19;6278040;22;627;-91
2022/06/05 03:08:14;;;;;;;;;;;;;;;12.31;75.75;100738.56;6250782;22;1155;-91
2022/06/05 03:10:39;;;;;;;;;;;;;;;12.18;75.78;100736.44;6251068;22;1377;-91
2022/06/05 03:13:05;;;;;;;;;;;;;;;12.47;75.57;100725.53;6252723;22;1139;-91
2022/06/05 03:15:31;;;;;;;;;;;;;;;12.40;74.86;100723.13;6252870;22;1303;-91
2022/06/05 03:17:56;;;;;;;;;;;;;;;12.29;75.56;100710.56;6252580;22;1919;-91
2022/06/05 03:20:21;;;;;;;;;;;;;;;12.21;75.39;100708.44;6252728;22;1272;-92
2022/06/05 03:22:47;;;;;;;;;;;;;;;11.81;75.94;100709.53;6252648;22;1230;-91
2022/06/05 03:25:15;;;;;;;;;;;;;;;11.95;75.68;100701.50;6252535;22;1274;-91
2022/06/05 03:27:40;;;;;;;;;;;;;;;11.86;76.10;100693.03;6252422;22;1205;-91
2022/06/05 03:30:05;;;;;;;;;;;;;;;11.87;76.05;100697.44;6252525;22;1273;-91
2022/06/05 03:32:31;;;;;;;;;;;;;;;11.82;76.29;100685.69;6252567;22;1233;-91
2022/06/05 03:34:56;;;;;;;;;;;;;;;12.02;76.13;100680.88;6252928;22;1182;-91
2022/06/05 03:37:22;;;;;;;;;;;;;;;12.14;74.72;100683.25;6252545;22;1175;-91
2022/06/05 03:39:47;;;;;;;;;;;;;;;11.75;75.22;100681.31;6252714;22;1884;-91
2022/06/05 03:42:12;;;;;;;;;;;;;;;11.65;76.09;100678.59;6252499;22;1401;-92
2022/06/05 03:44:39;;;;;;;;;;;;;;;11.50;77.23;100670.47;6252387;22;1284;-92
2022/06/05 03:47:04;;;;;;;;;;;;;;;11.72;77.09;100664.59;6252469;22;1069;-91
2022/06/05 03:49:30;;;;;;;;;;;;;;;11.84;76.25;100667.00;6252412;22;1331;-91
2022/06/05 03:51:55;;;;;;;;;;;;;;;11.95;76.41;100657.59;6252493;22;1286;-91
2022/06/05 03:54:21;;;;;;;;;;;;;;;12.17;75.79;100651.66;6252322;22;1259;-91
2022/06/05 03:56:46;;;;;;;;;;;;;;;12.40;74.42;100650.91;6252743;22;1569;-90
2022/06/05 03:59:11;;;;;;;;;;;;;;;12.50;74.40;100645.34;6252282;22;1900;-91
2022/06/05 04:01:36;;;;;;;;;;;;;;;12.59;73.65;100640.03;6252244;22;1301;-91
2022/06/05 04:04:01;;;;;;;;;;;;;;;12.21;75.46;100633.53;6252267;22;1150;-91
2022/06/05 04:06:29;;;;;;;;;;;;;;;12.37;75.30;100638.59;6252283;22;1155;-91
2022/06/05 04:08:55;;;;;;;;;;;;;;;12.06;76.03;100629.81;6252127;22;1206;-92
2022/06/05 04:13:51;;;;;;;;;;;;;;;12.28;75.84;100632.06;6284871;22;659;-93
